createdAt,value
2022-09-15T00:01:40.120Z,3.78
2022-09-15T00:04:10.091Z,4.32
2022-09-15T00:06:38.683Z,5.22
2022-09-15T00:09:08.663Z,7.75
2022-09-15T00:11:38.633Z,8.63
2022-09-15T00:14:08.759Z,4.50
2022-09-15T00:16:37.672Z,6.07
2022-09-15T00:19:06.779Z,5.20
2022-09-15T00:21:37.301Z,5.57
2022-09-15T00:24:06.076Z,5.50
2022-09-15T00:26:37.295Z,5.60
2022-09-15T00:29:06.692Z,5.10
2022-09-15T00:31:35.384Z,5.35
2022-09-15T00:34:08.862Z,4.30
2022-09-15T00:36:37.367Z,4.63
2022-09-15T00:39:06.563Z,4.40
2022-09-15T00:41:36.705Z,4.40
2022-09-15T00:44:07.568Z,4.40
2022-09-15T00:46:38.175Z,4.10
2022-09-15T00:49:13.266Z,4.18
2022-09-15T00:51:47.613Z,4.75
2022-09-15T00:56:50.791Z,4.07
2022-09-15T00:59:25.341Z,4.10
2022-09-15T01:02:01.000Z,5.47
2022-09-15T01:04:30.253Z,9.00
2022-09-15T01:07:02.514Z,7.13
2022-09-15T01:09:37.796Z,6.32
2022-09-15T01:12:08.316Z,7.05
2022-09-15T01:14:37.108Z,5.75
2022-09-15T01:17:13.329Z,5.07
2022-09-15T01:20:16.049Z,4.90
2022-09-15T01:22:56.017Z,4.60
2022-09-15T01:25:48.192Z,4.70
2022-09-15T01:28:37.511Z,5.18
2022-09-15T01:31:15.043Z,4.47
2022-09-15T01:33:49.146Z,4.93
2022-09-15T01:36:25.039Z,4.53
2022-09-15T01:39:01.149Z,5.40
2022-09-15T01:41:36.155Z,7.05
2022-09-15T01:44:08.840Z,10.48
2022-09-15T01:46:42.926Z,10.05
2022-09-15T01:49:15.803Z,8.45
2022-09-15T01:51:47.665Z,5.53
2022-09-15T01:54:20.463Z,5.05
2022-09-15T01:56:49.425Z,4.50
2022-09-15T01:59:17.959Z,4.05
2022-09-15T02:01:53.344Z,4.55
2022-09-15T02:04:29.710Z,4.20
2022-09-15T02:07:07.238Z,4.38
2022-09-15T02:09:39.753Z,4.47
2022-09-15T02:12:15.041Z,4.40
2022-09-15T02:14:52.936Z,4.57
2022-09-15T02:17:25.281Z,4.60
2022-09-15T02:19:57.787Z,4.47
2022-09-15T02:22:29.409Z,4.10
2022-09-15T02:25:03.067Z,4.50
2022-09-15T02:27:36.467Z,4.30
2022-09-15T02:30:11.786Z,4.50
2022-09-15T02:32:47.338Z,4.22
2022-09-15T02:35:18.104Z,3.78
2022-09-15T02:37:47.744Z,4.28
2022-09-15T02:40:16.463Z,4.22
2022-09-15T02:42:55.984Z,4.28
2022-09-15T02:45:25.044Z,4.30
2022-09-15T02:47:55.087Z,4.45
2022-09-15T02:50:24.428Z,4.13
2022-09-15T02:52:52.915Z,4.45
2022-09-15T02:55:21.960Z,4.78
2022-09-15T02:57:50.744Z,5.03
2022-09-15T03:00:20.068Z,4.38
2022-09-15T03:02:51.687Z,4.63
2022-09-15T03:05:24.783Z,4.75
2022-09-15T03:07:53.711Z,5.18
2022-09-15T03:10:23.687Z,4.22
2022-09-15T03:12:53.762Z,4.63
2022-09-15T03:15:24.559Z,5.03
2022-09-15T03:17:54.716Z,4.68
2022-09-15T03:20:28.036Z,4.55
2022-09-15T03:22:56.941Z,4.80
2022-09-15T03:25:26.942Z,4.03
2022-09-15T03:27:55.598Z,4.63
2022-09-15T03:30:24.201Z,4.13
2022-09-15T03:32:52.678Z,5.00
2022-09-15T03:35:21.307Z,4.65
2022-09-15T03:37:51.184Z,4.70
2022-09-15T03:40:19.698Z,5.15
2022-09-15T03:42:48.323Z,5.45
2022-09-15T03:45:16.987Z,4.68
2022-09-15T03:47:45.499Z,5.28
2022-09-15T03:50:14.012Z,5.18
2022-09-15T03:52:42.515Z,5.28
2022-09-15T03:55:12.488Z,4.93
2022-09-15T03:57:41.119Z,4.55
2022-09-15T04:00:10.435Z,4.80
2022-09-15T04:02:39.184Z,5.07
2022-09-15T04:05:08.873Z,4.95
2022-09-15T04:07:37.496Z,4.97
2022-09-15T04:10:06.840Z,4.88
2022-09-15T04:12:37.228Z,5.22
2022-09-15T04:15:06.475Z,5.03
2022-09-15T04:17:35.052Z,4.70
2022-09-15T04:20:03.862Z,4.70
2022-09-15T04:22:33.129Z,5.32
2022-09-15T04:25:01.672Z,5.57
2022-09-15T04:27:32.165Z,4.75
2022-09-15T04:30:02.265Z,4.90
2022-09-15T04:32:30.967Z,4.78
2022-09-15T04:34:59.549Z,4.88
2022-09-15T04:37:28.092Z,5.13
2022-09-15T04:39:56.879Z,5.53
2022-09-15T04:42:25.501Z,5.32
2022-09-15T04:44:54.041Z,4.85
2022-09-15T04:47:24.034Z,5.18
2022-09-15T04:49:52.581Z,5.30
2022-09-15T04:52:21.275Z,5.82
2022-09-15T04:54:49.785Z,5.05
2022-09-15T04:57:18.413Z,5.68
2022-09-15T04:59:46.927Z,5.30
2022-09-15T05:02:15.523Z,5.10
2022-09-15T05:04:45.801Z,5.60
2022-09-15T05:07:14.467Z,5.35
2022-09-15T05:09:42.973Z,5.55
2022-09-15T05:12:11.580Z,5.70
2022-09-15T05:14:40.060Z,5.70
2022-09-15T05:17:09.019Z,6.00
2022-09-15T05:19:37.577Z,5.35
2022-09-15T05:22:07.445Z,5.95
2022-09-15T05:24:35.954Z,6.00
2022-09-15T05:27:04.759Z,6.22
2022-09-15T05:29:33.273Z,5.65
2022-09-15T05:32:01.808Z,5.40
2022-09-15T05:34:30.519Z,5.63
2022-09-15T05:36:59.038Z,6.15
2022-09-15T05:39:29.088Z,5.18
2022-09-15T05:41:57.606Z,6.00
2022-09-15T05:44:26.138Z,5.40
2022-09-15T05:46:54.872Z,5.93
2022-09-15T05:49:23.438Z,5.78
2022-09-15T05:51:52.002Z,5.45
2022-09-15T05:54:20.664Z,5.05
2022-09-15T05:56:50.607Z,5.28
2022-09-15T05:59:19.192Z,6.60
2022-09-15T06:01:47.738Z,5.13
2022-09-15T06:04:16.459Z,4.90
2022-09-15T06:06:45.114Z,4.93
2022-09-15T06:09:13.702Z,4.78
2022-09-15T06:11:42.192Z,4.72
2022-09-15T06:14:14.089Z,4.57
2022-09-15T06:16:42.573Z,4.50
2022-09-15T06:19:11.091Z,4.82
2022-09-15T06:21:39.658Z,4.53
2022-09-15T06:24:08.295Z,4.10
2022-09-15T06:26:37.023Z,4.50
2022-09-15T06:29:06.395Z,3.97
2022-09-15T06:31:37.062Z,4.40
2022-09-15T06:34:06.777Z,4.30
2022-09-15T06:36:37.683Z,4.07
2022-09-15T06:39:06.460Z,4.03
2022-09-15T06:41:58.394Z,4.22
2022-09-15T06:44:23.552Z,4.68
2022-09-15T06:46:53.871Z,4.28
2022-09-15T06:49:22.837Z,4.00
2022-09-15T06:51:51.390Z,3.85
2022-09-15T06:54:20.151Z,3.80
2022-09-15T06:56:48.834Z,3.97
2022-09-15T06:59:18.411Z,4.28
2022-09-15T07:01:46.986Z,4.40
2022-09-15T07:04:17.000Z,3.88
2022-09-15T07:06:45.591Z,3.97
2022-09-15T07:09:14.554Z,4.88
2022-09-15T07:11:43.074Z,4.40
2022-09-15T07:14:12.680Z,4.25
2022-09-15T07:16:41.677Z,4.22
2022-09-15T07:19:10.264Z,3.97
2022-09-15T07:21:40.178Z,3.58
2022-09-15T07:24:10.403Z,4.18
2022-09-15T07:26:39.337Z,4.20
2022-09-15T07:29:08.060Z,4.07
2022-09-15T07:31:38.741Z,3.78
2022-09-15T07:34:07.771Z,4.00
2022-09-15T07:36:36.642Z,5.00
2022-09-15T07:39:06.930Z,4.07
2022-09-15T07:41:36.215Z,4.15
2022-09-15T07:44:04.904Z,4.15
2022-09-15T07:46:34.291Z,4.63
2022-09-15T07:49:03.915Z,4.05
2022-09-15T07:51:32.512Z,3.70
2022-09-15T07:54:01.133Z,4.65
2022-09-15T07:56:30.998Z,4.53
2022-09-15T07:58:59.563Z,4.15
2022-09-15T08:01:28.125Z,3.95
2022-09-15T08:03:57.306Z,4.07
2022-09-15T08:06:27.924Z,3.80
2022-09-15T08:09:00.431Z,3.88
2022-09-15T08:11:30.980Z,3.90
2022-09-15T08:14:02.500Z,4.03
2022-09-15T08:16:31.215Z,3.58
2022-09-15T08:18:59.840Z,4.10
2022-09-15T08:21:29.190Z,3.83
2022-09-15T08:23:59.328Z,4.28
2022-09-15T08:26:31.033Z,3.67
2022-09-15T08:29:00.655Z,3.65
2022-09-15T08:31:29.341Z,3.20
2022-09-15T08:33:57.952Z,4.03
2022-09-15T08:36:28.052Z,3.83
2022-09-15T08:38:57.420Z,3.58
2022-09-15T08:41:29.143Z,3.60
2022-09-15T08:44:04.846Z,3.75
2022-09-15T08:46:38.411Z,4.28
2022-09-15T08:49:13.668Z,3.35
2022-09-15T08:51:46.276Z,3.30
2022-09-15T08:54:19.941Z,3.20
2022-09-15T08:56:49.881Z,3.38
2022-09-15T08:59:21.439Z,3.10
2022-09-15T09:02:17.009Z,3.13
2022-09-15T09:05:01.511Z,2.47
2022-09-15T09:07:54.083Z,2.80
2022-09-15T09:10:32.243Z,3.00
2022-09-15T09:13:12.773Z,2.72
2022-09-15T09:15:55.344Z,2.60
2022-09-15T09:18:51.190Z,2.22
2022-09-15T09:21:24.811Z,2.60
2022-09-15T09:23:59.345Z,2.50
2022-09-15T09:26:31.448Z,2.65
2022-09-15T09:29:01.843Z,2.47
2022-09-15T09:31:31.884Z,2.28
2022-09-15T09:34:07.400Z,2.60
2022-09-15T09:36:36.003Z,2.55
2022-09-15T09:39:05.200Z,2.53
2022-09-15T09:41:36.891Z,2.22
2022-09-15T09:44:11.819Z,2.47
2022-09-15T09:46:42.390Z,2.65
2022-09-15T09:49:16.969Z,2.50
2022-09-15T09:51:53.609Z,3.30
2022-09-15T09:54:25.007Z,2.40
2022-09-15T09:56:55.072Z,2.42
2022-09-15T09:59:36.139Z,2.60
2022-09-15T10:02:16.998Z,2.65
2022-09-15T10:04:47.159Z,2.25
2022-09-15T10:07:17.858Z,2.50
2022-09-15T10:10:01.176Z,2.85
2022-09-15T10:12:35.454Z,2.35
2022-09-15T10:17:43.957Z,2.67
2022-09-15T10:20:25.803Z,2.80
2022-09-15T10:23:04.136Z,2.42
2022-09-15T10:25:57.639Z,2.30
2022-09-15T10:28:26.242Z,1.88
2022-09-15T10:31:02.448Z,2.10
2022-09-15T10:33:35.097Z,2.53
2022-09-15T10:38:43.259Z,1.77
2022-09-15T10:41:22.100Z,2.72
2022-09-15T10:44:20.102Z,2.80
2022-09-15T10:47:13.508Z,2.00
2022-09-15T10:49:59.709Z,2.25
2022-09-15T10:52:44.012Z,2.03
2022-09-15T10:55:51.546Z,1.60
2022-09-15T10:58:36.850Z,1.90
2022-09-15T11:01:29.498Z,1.98
2022-09-15T11:04:16.502Z,1.80
2022-09-15T11:06:55.245Z,1.95
2022-09-15T11:09:32.331Z,1.83
2022-09-15T11:12:14.082Z,3.45
2022-09-15T11:14:56.230Z,2.42
2022-09-15T11:17:39.396Z,1.70
2022-09-15T11:20:34.076Z,8.32
2022-09-15T11:23:12.716Z,2.47
2022-09-15T11:25:45.195Z,2.63
2022-09-15T11:28:19.796Z,3.58
2022-09-15T11:30:54.831Z,1.92
2022-09-15T11:33:30.227Z,3.58
2022-09-15T11:36:06.448Z,2.00
2022-09-15T11:38:48.020Z,2.70
2022-09-15T11:41:21.605Z,4.38
2022-09-15T11:44:00.392Z,2.00
2022-09-15T11:46:35.886Z,2.33
2022-09-15T11:49:09.216Z,3.00
2022-09-15T11:51:50.704Z,2.67
2022-09-15T11:54:31.404Z,3.10
2022-09-15T11:57:00.966Z,2.60
2022-09-15T11:59:35.530Z,2.30
2022-09-15T12:02:12.823Z,2.20
2022-09-15T12:04:47.604Z,3.13
2022-09-15T12:07:39.758Z,2.08
2022-09-15T12:10:16.360Z,3.08
2022-09-15T12:12:47.380Z,2.63
2022-09-15T12:15:19.181Z,2.30
2022-09-15T12:17:54.062Z,2.03
2022-09-15T12:20:26.356Z,1.95
2022-09-15T12:23:01.760Z,2.15
2022-09-15T12:25:37.487Z,1.70
2022-09-15T12:28:52.253Z,1.73
2022-09-15T12:31:36.935Z,2.30
2022-09-15T12:34:32.362Z,1.63
2022-09-15T12:37:10.143Z,1.80
2022-09-15T12:39:45.001Z,1.80
2022-09-15T12:42:21.776Z,4.30
2022-09-15T12:44:56.926Z,2.60
2022-09-15T12:47:33.600Z,2.65
2022-09-15T12:50:23.224Z,2.35
2022-09-15T12:52:54.625Z,3.78
2022-09-15T12:55:25.101Z,2.17
2022-09-15T12:57:58.330Z,2.65
2022-09-15T13:00:45.539Z,2.20
2022-09-15T13:03:30.662Z,2.75
2022-09-15T13:06:20.950Z,3.33
2022-09-15T13:09:00.023Z,2.50
2022-09-15T13:11:38.315Z,1.90
2022-09-15T13:14:25.651Z,2.17
2022-09-15T13:16:59.817Z,2.25
2022-09-15T13:22:06.376Z,2.25
2022-09-15T13:24:47.927Z,1.85
2022-09-15T13:27:20.744Z,2.00
2022-09-15T13:29:55.762Z,1.67
2022-09-15T13:32:39.946Z,6.85
2022-09-15T13:35:53.540Z,5.00
2022-09-15T13:38:53.803Z,2.40
2022-09-15T13:42:10.521Z,2.05
2022-09-15T13:45:01.015Z,2.42
2022-09-15T13:47:46.977Z,2.05
2022-09-15T13:50:19.632Z,1.98
2022-09-15T13:53:03.708Z,1.80
2022-09-15T13:55:35.344Z,2.22
2022-09-15T14:01:02.050Z,1.67
2022-09-15T14:03:37.968Z,1.90
2022-09-15T14:06:14.470Z,1.63
2022-09-15T14:08:45.168Z,1.85
2022-09-15T14:11:16.980Z,1.77
2022-09-15T14:13:48.714Z,1.52
2022-09-15T14:16:25.736Z,1.70
2022-09-15T14:18:57.628Z,2.53
2022-09-15T14:21:28.587Z,4.50
2022-09-15T14:23:58.815Z,2.30
2022-09-15T14:26:30.164Z,1.83
2022-09-15T14:29:00.259Z,2.20
2022-09-15T14:31:33.438Z,2.10
2022-09-15T14:34:02.795Z,2.15
2022-09-15T14:36:33.778Z,1.77
2022-09-15T14:39:18.778Z,1.80
2022-09-15T14:41:48.533Z,1.67
2022-09-15T14:47:22.731Z,1.80
2022-09-15T14:50:06.167Z,2.05
2022-09-15T14:52:39.039Z,2.00
2022-09-15T14:55:13.547Z,2.97
2022-09-15T14:57:48.872Z,3.70
2022-09-15T15:00:23.013Z,1.73
2022-09-15T15:03:07.219Z,3.25
2022-09-15T15:05:43.546Z,1.92
2022-09-15T15:08:31.799Z,3.10
2022-09-15T15:11:01.704Z,2.15
2022-09-15T15:13:31.011Z,1.80
2022-09-15T15:15:59.641Z,1.50
2022-09-15T15:18:39.593Z,1.83
2022-09-15T15:21:28.607Z,1.75
2022-09-15T15:23:57.415Z,1.80
2022-09-15T15:26:34.465Z,1.80
2022-09-15T15:29:03.181Z,2.60
2022-09-15T15:31:31.761Z,2.63
2022-09-15T15:34:05.469Z,3.60
2022-09-15T15:36:36.540Z,2.60
2022-09-15T15:39:07.934Z,1.95
2022-09-15T15:41:40.774Z,1.67
2022-09-15T15:44:27.396Z,1.73
2022-09-15T15:47:01.658Z,1.70
2022-09-15T15:52:02.347Z,1.70
2022-09-15T15:54:30.974Z,1.48
2022-09-15T15:57:21.795Z,1.50
2022-09-15T15:59:50.404Z,1.55
2022-09-15T16:02:19.331Z,1.58
2022-09-15T16:04:49.600Z,1.48
2022-09-15T16:07:21.923Z,1.60
2022-09-15T16:09:51.875Z,1.80
2022-09-15T16:12:20.391Z,1.48
2022-09-15T16:14:49.039Z,1.70
2022-09-15T16:17:17.635Z,2.00
2022-09-15T16:19:46.127Z,2.10
2022-09-15T16:22:20.630Z,2.78
2022-09-15T16:24:49.247Z,1.90
2022-09-15T16:27:19.246Z,1.63
2022-09-15T16:29:48.157Z,2.00
2022-09-15T16:32:20.173Z,1.83
2022-09-15T16:34:51.255Z,2.03
2022-09-15T16:37:22.070Z,2.30
2022-09-15T16:39:52.214Z,2.90
2022-09-15T16:42:20.903Z,2.85
2022-09-15T16:44:49.384Z,3.05
2022-09-15T16:47:18.018Z,3.13
2022-09-15T16:49:46.577Z,9.00
2022-09-15T16:52:15.971Z,8.60
2022-09-15T16:54:45.973Z,4.85
2022-09-15T16:57:14.521Z,4.80
2022-09-15T16:59:43.044Z,7.65
2022-09-15T17:02:14.966Z,6.20
2022-09-15T17:04:43.684Z,3.17
2022-09-15T17:07:12.259Z,2.10
2022-09-15T17:09:42.388Z,2.03
2022-09-15T17:14:42.368Z,1.90
2022-09-15T17:17:24.483Z,2.10
2022-09-15T17:19:53.011Z,1.90
2022-09-15T17:22:21.795Z,2.50
2022-09-15T17:24:50.392Z,2.47
2022-09-15T17:27:20.372Z,2.17
2022-09-15T17:29:49.031Z,3.25
2022-09-15T17:32:17.708Z,3.63
2022-09-15T17:34:46.347Z,5.45
2022-09-15T17:37:14.881Z,4.68
2022-09-15T17:39:43.484Z,6.50
2022-09-15T17:42:12.092Z,3.75
2022-09-15T17:44:41.952Z,7.55
2022-09-15T17:47:10.471Z,3.10
2022-09-15T17:49:39.099Z,6.28
2022-09-15T17:52:08.275Z,8.32
2022-09-15T17:54:37.260Z,5.53
2022-09-15T17:57:06.159Z,4.07
2022-09-15T17:59:34.958Z,3.90
2022-09-15T18:02:05.505Z,3.40
2022-09-15T18:04:34.393Z,6.82
2022-09-15T18:07:02.966Z,2.90
2022-09-15T18:09:31.548Z,4.30
2022-09-15T18:12:00.135Z,2.42
2022-09-15T18:14:28.770Z,2.53
2022-09-15T18:16:57.739Z,2.33
2022-09-15T18:19:27.628Z,2.60
2022-09-15T18:21:56.171Z,3.15
2022-09-15T18:24:25.227Z,1.90
2022-09-15T18:26:54.545Z,2.22
2022-09-15T18:29:23.276Z,2.03
2022-09-15T18:31:53.070Z,2.10
2022-09-15T18:34:22.377Z,2.00
2022-09-15T18:36:54.285Z,2.40
2022-09-15T18:39:22.961Z,1.77
2022-09-15T18:41:54.996Z,2.15
2022-09-15T18:44:24.437Z,2.70
2022-09-15T18:46:58.660Z,3.33
2022-09-15T18:49:27.173Z,3.08
2022-09-15T18:51:57.169Z,3.08
2022-09-15T18:54:25.807Z,7.50
2022-09-15T18:56:54.346Z,5.30
2022-09-15T18:59:22.871Z,3.17
2022-09-15T19:01:51.482Z,2.50
2022-09-15T19:04:20.111Z,2.63
2022-09-15T19:06:48.649Z,2.22
2022-09-15T19:09:18.847Z,2.08
2022-09-15T19:11:47.408Z,2.53
2022-09-15T19:14:15.949Z,2.20
2022-09-15T19:16:57.148Z,3.60
2022-09-15T19:19:26.470Z,3.30
2022-09-15T19:21:55.075Z,3.58
2022-09-15T19:24:26.571Z,3.00
2022-09-15T19:26:55.109Z,5.70
2022-09-15T19:29:23.710Z,5.05
2022-09-15T19:31:52.234Z,2.67
2022-09-15T19:34:20.771Z,3.60
2022-09-15T19:36:49.403Z,3.10
2022-09-15T19:39:17.928Z,4.38
2022-09-15T19:41:47.909Z,6.82
2022-09-15T19:44:17.157Z,5.38
2022-09-15T19:46:45.713Z,3.53
2022-09-15T19:49:14.276Z,2.70
2022-09-15T19:51:43.091Z,6.93
2022-09-15T19:54:11.840Z,4.15
2022-09-15T19:56:40.342Z,5.70
2022-09-15T19:59:11.489Z,2.92
2022-09-15T20:01:40.108Z,3.92
2022-09-15T20:04:08.759Z,7.25
2022-09-15T20:06:37.611Z,3.75
2022-09-15T20:09:07.131Z,4.80
2022-09-15T20:11:36.436Z,3.97
2022-09-15T20:14:06.439Z,2.90
2022-09-15T20:16:36.484Z,2.20
2022-09-15T20:19:06.197Z,8.88
2022-09-15T20:21:49.803Z,3.90
2022-09-15T20:24:21.409Z,3.92
2022-09-15T20:26:50.032Z,4.65
2022-09-15T20:29:19.158Z,3.50
2022-09-15T20:31:49.422Z,3.72
2022-09-15T20:34:18.727Z,2.83
2022-09-15T20:36:47.381Z,2.58
2022-09-15T20:39:18.862Z,2.20
2022-09-15T20:41:47.399Z,2.20
2022-09-15T20:44:16.029Z,2.42
2022-09-15T20:46:44.842Z,3.70
2022-09-15T20:49:14.739Z,3.78
2022-09-15T20:51:43.504Z,3.25
2022-09-15T20:54:12.080Z,2.80
2022-09-15T20:56:40.657Z,2.33
2022-09-15T20:59:10.648Z,2.90
2022-09-15T21:01:40.471Z,2.35
2022-09-15T21:04:10.954Z,2.63
2022-09-15T21:06:41.056Z,2.42
2022-09-15T21:09:09.731Z,4.88
2022-09-15T21:11:39.287Z,3.88
2022-09-15T21:14:07.913Z,3.00
2022-09-15T21:16:36.426Z,3.28
2022-09-15T21:19:05.219Z,3.17
2022-09-15T21:21:34.535Z,2.70
2022-09-15T21:24:07.575Z,4.72
2022-09-15T21:26:58.069Z,7.35
2022-09-15T21:29:27.642Z,5.07
2022-09-15T21:31:57.209Z,4.65
2022-09-15T21:34:26.530Z,2.75
2022-09-15T21:36:55.078Z,2.83
2022-09-15T21:39:25.431Z,2.63
2022-09-15T21:41:54.190Z,2.45
2022-09-15T21:44:22.699Z,2.25
2022-09-15T21:46:52.701Z,2.30
2022-09-15T21:49:21.362Z,2.42
2022-09-15T21:51:49.852Z,2.75
2022-09-15T21:54:18.348Z,2.60
2022-09-15T21:56:48.275Z,3.22
2022-09-15T21:59:18.458Z,4.22
2022-09-15T22:01:47.022Z,2.58
2022-09-15T22:04:15.643Z,2.65
2022-09-15T22:06:52.886Z,4.43
2022-09-15T22:09:21.603Z,3.22
2022-09-15T22:11:50.333Z,4.32
2022-09-15T22:14:19.156Z,5.03
2022-09-15T22:16:47.705Z,2.80
2022-09-15T22:19:16.343Z,3.17
2022-09-15T22:21:45.131Z,2.85
2022-09-15T22:24:15.052Z,3.10
2022-09-15T22:26:44.428Z,3.42
2022-09-15T22:29:13.407Z,2.70
2022-09-15T22:31:42.156Z,3.40
2022-09-15T22:34:11.106Z,3.70
2022-09-15T22:36:39.637Z,2.90
2022-09-15T22:39:08.455Z,3.10
2022-09-15T22:41:39.824Z,3.60
2022-09-15T22:44:17.801Z,3.47
2022-09-15T22:46:46.325Z,3.88
2022-09-15T22:49:14.819Z,3.63
2022-09-15T22:51:43.352Z,7.30
2022-09-15T22:54:11.848Z,5.40
2022-09-15T22:56:41.749Z,6.82
2022-09-15T22:59:10.272Z,5.63
2022-09-15T23:01:38.822Z,9.40
2022-09-15T23:04:07.416Z,6.90
2022-09-15T23:06:36.140Z,3.63
2022-09-15T23:09:07.755Z,5.38
2022-09-15T23:11:39.761Z,5.95
2022-09-15T23:14:15.280Z,4.32
2022-09-15T23:16:44.532Z,4.40
2022-09-15T23:19:14.267Z,3.28
2022-09-15T23:21:42.856Z,3.78
2022-09-15T23:24:12.644Z,3.17
2022-09-15T23:26:41.325Z,2.80
2022-09-15T23:29:11.362Z,2.97
2022-09-15T23:31:40.039Z,2.13
2022-09-15T23:34:08.602Z,2.10
2022-09-15T23:36:37.096Z,2.40
2022-09-15T23:39:05.661Z,2.40
2022-09-15T23:41:34.573Z,2.80
2022-09-15T23:44:03.480Z,2.25
2022-09-15T23:46:33.807Z,2.13
2022-09-15T23:49:02.731Z,2.20
2022-09-15T23:51:31.389Z,2.50
2022-09-15T23:54:01.572Z,2.40
2022-09-15T23:56:30.077Z,3.45
2022-09-15T23:58:58.571Z,2.50
